createdAt,value
2022-12-25T00:01:22.904Z,8.65
2022-12-25T00:03:50.422Z,8.95
2022-12-25T00:06:17.524Z,8.77
2022-12-25T00:08:44.476Z,8.15
2022-12-25T00:11:13.850Z,9.15
2022-12-25T00:13:40.993Z,8.20
2022-12-25T00:16:14.674Z,9.10
2022-12-25T00:18:41.089Z,8.85
2022-12-25T00:21:07.624Z,8.35
2022-12-25T00:23:35.713Z,8.63
2022-12-25T00:26:12.429Z,9.07
2022-12-25T00:28:39.185Z,8.15
2022-12-25T00:31:14.825Z,9.13
2022-12-25T00:33:43.655Z,9.77
2022-12-25T00:36:11.630Z,8.75
2022-12-25T00:38:39.519Z,8.95
2022-12-25T00:41:08.027Z,8.55
2022-12-25T00:43:34.582Z,8.77
2022-12-25T00:46:03.839Z,7.93
2022-12-25T00:48:31.517Z,7.97
2022-12-25T00:51:01.457Z,8.00
2022-12-25T00:53:29.004Z,8.35
2022-12-25T00:55:57.990Z,8.80
2022-12-25T00:58:26.120Z,8.13
2022-12-25T01:00:52.780Z,8.65
2022-12-25T01:03:19.245Z,7.85
2022-12-25T01:06:12.906Z,8.75
2022-12-25T01:08:59.697Z,8.07
2022-12-25T01:11:26.425Z,7.80
2022-12-25T01:13:52.961Z,8.27
2022-12-25T01:16:19.477Z,7.60
2022-12-25T01:18:46.599Z,7.50
2022-12-25T01:21:18.117Z,7.85
2022-12-25T01:23:44.995Z,7.82
2022-12-25T01:26:13.246Z,7.88
2022-12-25T01:28:40.636Z,7.95
2022-12-25T01:31:11.637Z,7.40
2022-12-25T01:33:39.836Z,7.75
2022-12-25T01:36:17.099Z,7.65
2022-12-25T01:38:44.063Z,7.75
2022-12-25T01:41:11.861Z,8.52
2022-12-25T01:44:06.204Z,8.70
2022-12-25T01:46:33.416Z,7.20
2022-12-25T01:49:08.376Z,7.72
2022-12-25T01:51:49.220Z,7.30
2022-12-25T01:54:20.336Z,8.38
2022-12-25T01:56:49.777Z,7.88
2022-12-25T01:59:19.443Z,7.47
2022-12-25T02:01:46.800Z,8.38
2022-12-25T02:04:25.156Z,8.00
2022-12-25T02:06:53.258Z,8.23
2022-12-25T02:09:19.762Z,7.90
2022-12-25T02:11:59.109Z,7.82
2022-12-25T02:14:29.821Z,7.60
2022-12-25T02:17:27.588Z,7.85
2022-12-25T02:20:15.722Z,8.65
2022-12-25T02:23:07.295Z,7.50
2022-12-25T02:25:47.121Z,7.88
2022-12-25T02:28:33.557Z,7.60
2022-12-25T02:31:13.118Z,7.70
2022-12-25T02:34:14.403Z,7.40
2022-12-25T02:36:52.591Z,7.63
2022-12-25T02:39:47.047Z,7.95
2022-12-25T02:42:21.130Z,7.60
2022-12-25T02:45:17.195Z,6.63
2022-12-25T02:48:15.690Z,7.47
2022-12-25T02:51:00.861Z,8.20
2022-12-25T02:53:47.093Z,7.85
2022-12-25T02:56:32.438Z,6.90
2022-12-25T02:59:20.150Z,7.68
2022-12-25T03:02:05.398Z,7.68
2022-12-25T03:04:52.122Z,8.07
2022-12-25T03:07:22.053Z,8.45
2022-12-25T03:10:17.957Z,7.93
2022-12-25T03:12:58.971Z,7.82
2022-12-25T03:15:44.321Z,8.80
2022-12-25T03:18:15.808Z,7.47
2022-12-25T03:21:00.583Z,7.68
2022-12-25T03:23:49.868Z,8.30
2022-12-25T03:26:35.957Z,7.43
2022-12-25T03:29:02.771Z,8.05
2022-12-25T03:31:51.063Z,7.78
2022-12-25T03:34:59.821Z,7.55
2022-12-25T03:37:44.403Z,7.40
2022-12-25T03:40:53.086Z,7.50
2022-12-25T03:43:48.168Z,8.48
2022-12-25T03:46:36.989Z,7.57
2022-12-25T03:49:32.554Z,7.28
2022-12-25T03:52:20.456Z,7.82
2022-12-25T03:55:09.767Z,7.40
2022-12-25T03:57:55.047Z,7.50
2022-12-25T04:00:40.598Z,7.43
2022-12-25T04:03:25.587Z,7.68
2022-12-25T04:06:10.930Z,7.68
2022-12-25T04:09:06.465Z,7.10
2022-12-25T04:11:52.624Z,7.43
2022-12-25T04:14:39.974Z,7.82
2022-12-25T04:17:25.305Z,7.30
2022-12-25T04:20:10.249Z,6.95
2022-12-25T04:22:55.378Z,7.97
2022-12-25T04:25:40.584Z,7.43
2022-12-25T04:28:25.501Z,7.55
2022-12-25T04:31:18.233Z,8.02
2022-12-25T04:34:03.588Z,7.63
2022-12-25T04:36:30.055Z,7.70
2022-12-25T04:38:56.541Z,7.32
2022-12-25T04:41:22.987Z,7.55
2022-12-25T04:43:49.400Z,6.90
2022-12-25T04:46:15.843Z,7.18
2022-12-25T04:48:42.345Z,7.20
2022-12-25T04:51:17.594Z,7.57
2022-12-25T04:53:44.986Z,6.47
2022-12-25T04:56:11.653Z,7.00
2022-12-25T04:58:38.534Z,6.10
2022-12-25T05:01:05.802Z,6.55
2022-12-25T05:03:32.824Z,6.80
2022-12-25T05:05:59.881Z,6.45
2022-12-25T05:08:27.997Z,6.60
2022-12-25T05:10:54.467Z,6.95
2022-12-25T05:13:20.934Z,6.72
2022-12-25T05:15:47.947Z,6.68
2022-12-25T05:18:14.593Z,6.30
2022-12-25T05:20:41.056Z,6.43
2022-12-25T05:23:10.697Z,6.80
2022-12-25T05:25:39.790Z,5.80
2022-12-25T05:28:07.240Z,6.47
2022-12-25T05:30:35.074Z,6.47
2022-12-25T05:33:01.925Z,6.03
2022-12-25T05:35:28.410Z,5.68
2022-12-25T05:37:54.901Z,6.00
2022-12-25T05:40:21.430Z,5.93
2022-12-25T05:42:47.853Z,6.20
2022-12-25T05:45:14.427Z,6.38
2022-12-25T05:47:40.890Z,6.00
2022-12-25T05:50:08.211Z,6.45
2022-12-25T05:52:34.902Z,6.00
2022-12-25T05:55:01.452Z,5.78
2022-12-25T05:57:29.354Z,6.10
2022-12-25T05:59:56.486Z,6.20
2022-12-25T06:02:23.641Z,5.88
2022-12-25T06:04:50.381Z,6.43
2022-12-25T06:07:16.901Z,6.28
2022-12-25T06:09:43.424Z,5.80
2022-12-25T06:12:09.842Z,6.25
2022-12-25T06:14:38.742Z,5.95
2022-12-25T06:17:05.316Z,6.03
2022-12-25T06:19:32.119Z,5.55
2022-12-25T06:21:58.671Z,5.82
2022-12-25T06:24:25.314Z,5.35
2022-12-25T06:26:51.983Z,5.57
2022-12-25T06:29:18.614Z,5.30
2022-12-25T06:31:45.308Z,4.93
2022-12-25T06:34:11.883Z,5.53
2022-12-25T06:36:38.469Z,5.78
2022-12-25T06:39:05.009Z,5.05
2022-12-25T06:41:31.478Z,5.05
2022-12-25T06:44:01.355Z,5.50
2022-12-25T06:46:29.648Z,4.57
2022-12-25T06:48:57.600Z,5.18
2022-12-25T06:51:26.666Z,4.72
2022-12-25T06:53:54.100Z,4.82
2022-12-25T06:56:24.199Z,4.85
2022-12-25T06:58:58.886Z,4.53
2022-12-25T07:01:30.207Z,4.85
2022-12-25T07:03:59.954Z,4.75
2022-12-25T07:06:26.759Z,4.65
2022-12-25T07:08:53.382Z,5.10
2022-12-25T07:11:20.298Z,4.53
2022-12-25T07:13:46.763Z,4.35
2022-12-25T07:16:13.721Z,5.10
2022-12-25T07:18:41.156Z,4.68
2022-12-25T07:21:19.270Z,4.20
2022-12-25T07:23:47.627Z,4.50
2022-12-25T07:26:15.750Z,4.43
2022-12-25T07:28:42.227Z,4.72
2022-12-25T07:31:14.265Z,4.43
2022-12-25T07:33:41.795Z,4.57
2022-12-25T07:36:10.234Z,4.63
2022-12-25T07:38:40.322Z,4.70
2022-12-25T07:41:10.679Z,4.80
2022-12-25T07:43:37.582Z,4.90
2022-12-25T07:46:04.919Z,4.65
2022-12-25T07:48:31.685Z,4.30
2022-12-25T07:51:04.030Z,4.47
2022-12-25T07:53:30.743Z,4.70
2022-12-25T07:56:02.806Z,4.32
2022-12-25T07:58:30.204Z,4.35
2022-12-25T08:01:03.216Z,4.60
2022-12-25T08:03:30.180Z,4.72
2022-12-25T08:06:01.654Z,4.50
2022-12-25T08:08:28.428Z,4.18
2022-12-25T08:10:54.980Z,4.70
2022-12-25T08:13:21.409Z,4.35
2022-12-25T08:15:48.763Z,4.25
2022-12-25T08:18:15.408Z,4.30
2022-12-25T08:20:41.933Z,4.35
2022-12-25T08:23:08.426Z,4.45
2022-12-25T08:25:34.943Z,4.22
2022-12-25T08:28:01.582Z,4.68
2022-12-25T08:30:28.692Z,4.45
2022-12-25T08:32:55.731Z,4.03
2022-12-25T08:35:22.327Z,4.18
2022-12-25T08:37:48.821Z,4.22
2022-12-25T08:40:15.418Z,4.43
2022-12-25T08:42:41.970Z,4.50
2022-12-25T08:45:09.162Z,4.72
2022-12-25T08:47:35.803Z,4.90
2022-12-25T08:50:02.298Z,4.40
2022-12-25T08:52:29.077Z,4.15
2022-12-25T08:54:56.276Z,4.22
2022-12-25T08:57:22.757Z,4.28
2022-12-25T08:59:49.189Z,4.28
2022-12-25T09:02:17.293Z,5.40
2022-12-25T09:04:47.039Z,5.35
2022-12-25T09:07:13.834Z,6.50
2022-12-25T09:09:40.374Z,5.47
2022-12-25T09:12:07.005Z,6.10
2022-12-25T09:14:33.548Z,5.65
2022-12-25T09:16:59.971Z,8.48
2022-12-25T09:19:26.549Z,11.48
2022-12-25T09:21:53.799Z,9.85
2022-12-25T09:24:20.853Z,12.55
2022-12-25T09:26:47.358Z,8.90
2022-12-25T09:29:14.727Z,15.07
2022-12-25T09:31:42.108Z,7.80
2022-12-25T09:34:11.471Z,6.47
2022-12-25T09:36:41.950Z,7.57
2022-12-25T09:39:08.452Z,8.02
2022-12-25T09:42:01.984Z,6.22
2022-12-25T09:44:32.205Z,6.65
2022-12-25T09:47:06.343Z,4.68
2022-12-25T09:49:44.811Z,4.55
2022-12-25T09:52:22.469Z,5.28
2022-12-25T09:55:03.351Z,5.25
2022-12-25T09:57:29.841Z,5.28
2022-12-25T09:59:56.620Z,4.97
2022-12-25T10:02:33.934Z,5.07
2022-12-25T10:05:19.569Z,4.90
2022-12-25T10:08:14.181Z,4.50
2022-12-25T10:10:49.956Z,4.57
2022-12-25T10:13:26.473Z,4.93
2022-12-25T10:16:28.718Z,4.53
2022-12-25T10:19:08.060Z,4.43
2022-12-25T10:21:34.662Z,4.55
2022-12-25T10:24:28.301Z,4.57
2022-12-25T10:26:56.382Z,4.50
2022-12-25T10:29:22.835Z,4.90
2022-12-25T10:31:52.835Z,4.60
2022-12-25T10:34:19.303Z,4.72
2022-12-25T10:36:46.336Z,4.30
2022-12-25T10:39:18.364Z,4.82
2022-12-25T10:42:13.639Z,4.28
2022-12-25T10:44:40.069Z,5.43
2022-12-25T10:47:06.660Z,8.98
2022-12-25T10:49:37.775Z,6.80
2022-12-25T10:52:19.889Z,5.40
2022-12-25T10:54:46.467Z,5.47
2022-12-25T10:57:16.929Z,5.75
2022-12-25T10:59:45.652Z,5.53
2022-12-25T11:02:27.684Z,6.07
2022-12-25T11:05:10.927Z,5.78
2022-12-25T11:07:50.745Z,5.80
2022-12-25T11:10:25.223Z,5.93
2022-12-25T11:12:53.014Z,5.95
2022-12-25T11:15:42.278Z,5.57
2022-12-25T11:18:20.957Z,6.05
2022-12-25T11:20:59.151Z,6.10
2022-12-25T11:23:28.085Z,6.00
2022-12-25T11:26:04.093Z,6.65
2022-12-25T11:28:33.124Z,6.63
2022-12-25T11:31:05.452Z,7.25
2022-12-25T11:33:52.781Z,7.30
2022-12-25T11:36:31.186Z,6.05
2022-12-25T11:39:14.182Z,6.25
2022-12-25T11:41:41.527Z,6.55
2022-12-25T11:44:22.741Z,5.95
2022-12-25T11:46:52.082Z,4.80
2022-12-25T11:49:21.313Z,5.05
2022-12-25T11:51:51.942Z,5.53
2022-12-25T11:54:33.760Z,6.00
2022-12-25T11:57:04.451Z,6.05
2022-12-25T11:59:38.266Z,7.07
2022-12-25T12:02:42.993Z,7.05
2022-12-25T12:05:21.287Z,6.05
2022-12-25T12:07:59.849Z,7.05
2022-12-25T12:11:15.692Z,5.63
2022-12-25T12:13:54.281Z,6.40
2022-12-25T12:16:20.836Z,7.28
2022-12-25T12:18:50.533Z,8.10
2022-12-25T12:21:30.404Z,8.10
2022-12-25T12:24:09.849Z,6.60
2022-12-25T12:26:40.782Z,5.47
2022-12-25T12:29:21.754Z,5.63
2022-12-25T12:31:50.386Z,5.83
2022-12-25T12:34:37.965Z,5.55
2022-12-25T12:37:22.897Z,5.72
2022-12-25T12:39:53.839Z,5.85
2022-12-25T12:42:25.920Z,6.63
2022-12-25T12:44:55.806Z,6.95
2022-12-25T12:47:44.431Z,6.05
2022-12-25T12:50:29.539Z,5.82
2022-12-25T12:52:56.832Z,6.40
2022-12-25T12:55:31.764Z,6.40
2022-12-25T12:58:00.423Z,6.25
2022-12-25T13:00:36.408Z,7.03
2022-12-25T13:03:10.088Z,7.65
2022-12-25T13:05:54.445Z,6.80
2022-12-25T13:08:49.737Z,6.72
2022-12-25T13:11:24.652Z,6.60
2022-12-25T13:13:53.789Z,7.90
2022-12-25T13:16:26.964Z,8.65
2022-12-25T13:18:56.141Z,8.65
2022-12-25T13:21:28.631Z,9.18
2022-12-25T13:24:03.884Z,7.65
2022-12-25T13:26:30.853Z,7.47
2022-12-25T13:28:57.404Z,8.82
2022-12-25T13:31:26.687Z,8.90
2022-12-25T13:34:06.769Z,8.48
2022-12-25T13:36:38.415Z,10.43
2022-12-25T13:39:08.494Z,9.80
2022-12-25T13:42:01.445Z,8.40
2022-12-25T13:44:31.035Z,8.02
2022-12-25T13:47:08.688Z,8.65
2022-12-25T13:49:36.293Z,8.73
2022-12-25T13:52:18.560Z,8.45
2022-12-25T13:55:04.691Z,7.93
2022-12-25T13:57:35.388Z,9.32
2022-12-25T14:00:04.230Z,8.27
2022-12-25T14:02:36.535Z,8.02
2022-12-25T14:05:24.135Z,8.57
2022-12-25T14:07:55.351Z,8.77
2022-12-25T14:10:24.373Z,8.32
2022-12-25T14:12:53.530Z,9.10
2022-12-25T14:15:22.281Z,8.15
2022-12-25T14:17:50.687Z,9.57
2022-12-25T14:20:47.441Z,8.75
2022-12-25T14:23:16.221Z,10.20
2022-12-25T14:25:45.278Z,12.45
2022-12-25T14:28:26.986Z,10.88
2022-12-25T14:30:54.414Z,10.73
2022-12-25T14:33:24.108Z,9.02
2022-12-25T14:35:51.368Z,9.75
2022-12-25T14:38:35.273Z,9.98
2022-12-25T14:41:05.693Z,10.40
2022-12-25T14:43:34.456Z,10.82
2022-12-25T14:46:03.804Z,11.57
2022-12-25T14:48:32.759Z,12.30
2022-12-25T14:51:02.154Z,11.73
2022-12-25T14:53:35.976Z,11.63
2022-12-25T14:56:03.301Z,12.73
2022-12-25T14:58:32.750Z,13.20
2022-12-25T15:01:01.697Z,14.50
2022-12-25T15:03:32.278Z,15.43
2022-12-25T15:06:19.447Z,16.45
2022-12-25T15:09:00.389Z,16.70
2022-12-25T15:11:27.484Z,20.17
2022-12-25T15:13:53.959Z,19.25
2022-12-25T15:16:33.922Z,15.68
2022-12-25T15:19:01.859Z,13.05
2022-12-25T15:21:30.267Z,13.80
2022-12-25T15:23:58.256Z,14.85
2022-12-25T15:26:26.537Z,15.15
2022-12-25T15:28:53.080Z,13.65
2022-12-25T15:31:29.875Z,13.50
2022-12-25T15:33:58.891Z,13.35
2022-12-25T15:36:25.734Z,13.38
2022-12-25T15:38:52.339Z,12.98
2022-12-25T15:41:55.137Z,11.80
2022-12-25T15:44:22.355Z,11.43
2022-12-25T15:46:49.625Z,12.48
2022-12-25T15:49:16.979Z,12.77
2022-12-25T15:51:44.510Z,10.95
2022-12-25T15:54:11.032Z,12.27
2022-12-25T15:56:44.532Z,13.38
2022-12-25T15:59:15.974Z,11.48
2022-12-25T16:02:04.463Z,10.27
2022-12-25T16:04:31.308Z,9.27
2022-12-25T16:06:59.300Z,9.02
2022-12-25T16:09:27.487Z,10.57
2022-12-25T16:11:53.899Z,9.80
2022-12-25T16:14:21.686Z,11.70
2022-12-25T16:16:48.487Z,13.02
2022-12-25T16:19:15.051Z,13.02
2022-12-25T16:21:45.093Z,16.45
2022-12-25T16:24:13.560Z,16.30
2022-12-25T16:26:40.105Z,19.08
2022-12-25T16:29:07.726Z,17.05
2022-12-25T16:31:35.693Z,16.10
2022-12-25T16:34:02.598Z,17.13
2022-12-25T16:36:29.248Z,21.42
2022-12-25T16:38:55.694Z,16.73
2022-12-25T16:41:22.307Z,15.63
2022-12-25T16:43:49.081Z,14.10
2022-12-25T16:46:19.029Z,12.15
2022-12-25T16:48:45.620Z,12.45
2022-12-25T16:51:14.680Z,12.77
2022-12-25T16:53:41.242Z,12.57
2022-12-25T16:56:10.107Z,14.25
2022-12-25T16:58:37.391Z,15.38
2022-12-25T17:01:08.823Z,15.68
2022-12-25T17:03:36.191Z,23.20
2022-12-25T17:06:03.593Z,18.73
2022-12-25T17:08:30.202Z,17.48
2022-12-25T17:10:56.881Z,18.13
2022-12-25T17:13:23.569Z,16.55
2022-12-25T17:15:50.746Z,15.32
2022-12-25T17:18:21.671Z,15.73
2022-12-25T17:20:52.844Z,16.35
2022-12-25T17:23:20.725Z,18.98
2022-12-25T17:25:47.242Z,19.27
2022-12-25T17:28:13.748Z,19.38
2022-12-25T17:30:40.254Z,20.98
2022-12-25T17:33:06.682Z,18.98
2022-12-25T17:35:36.309Z,23.92
2022-12-25T17:38:03.740Z,19.50
2022-12-25T17:40:30.943Z,21.15
2022-12-25T17:42:57.486Z,27.17
2022-12-25T17:45:23.993Z,24.77
2022-12-25T17:47:54.922Z,22.25
2022-12-25T17:50:22.174Z,22.87
2022-12-25T17:52:48.697Z,20.38
2022-12-25T17:55:15.118Z,20.17
2022-12-25T17:57:41.582Z,21.95
2022-12-25T18:00:08.393Z,21.60
2022-12-25T18:02:35.519Z,25.90
2022-12-25T18:05:02.137Z,27.75
2022-12-25T18:07:28.605Z,27.85
2022-12-25T18:09:55.093Z,22.02
2022-12-25T18:12:21.637Z,21.27
2022-12-25T18:14:48.296Z,19.50
2022-12-25T18:17:14.800Z,20.63
2022-12-25T18:19:41.277Z,19.80
2022-12-25T18:22:07.721Z,18.35
2022-12-25T18:24:34.186Z,18.95
2022-12-25T18:27:00.618Z,17.58
2022-12-25T18:29:27.149Z,16.55
2022-12-25T18:31:55.402Z,17.27
2022-12-25T18:34:22.077Z,17.90
2022-12-25T18:36:48.689Z,19.48
2022-12-25T18:39:17.389Z,19.65
2022-12-25T18:42:04.384Z,19.17
2022-12-25T18:44:30.873Z,33.67
2022-12-25T18:46:57.305Z,25.23
2022-12-25T18:49:23.789Z,21.65
2022-12-25T18:51:50.523Z,20.17
2022-12-25T18:54:17.009Z,19.40
2022-12-25T18:56:43.583Z,19.98
2022-12-25T18:59:10.079Z,20.65
2022-12-25T19:01:36.826Z,22.20
2022-12-25T19:04:05.625Z,20.17
2022-12-25T19:06:33.306Z,21.10
2022-12-25T19:09:00.078Z,21.67
2022-12-25T19:11:26.876Z,20.52
2022-12-25T19:13:53.345Z,22.58
2022-12-25T19:16:19.844Z,23.67
2022-12-25T19:18:46.460Z,23.73
2022-12-25T19:21:13.041Z,23.95
2022-12-25T19:23:39.609Z,25.73
2022-12-25T19:26:07.493Z,28.13
2022-12-25T19:28:34.821Z,28.65
2022-12-25T19:31:04.277Z,28.77
2022-12-25T19:33:31.611Z,26.98
2022-12-25T19:36:02.522Z,26.27
2022-12-25T19:38:29.266Z,25.67
2022-12-25T19:41:02.041Z,22.35
2022-12-25T19:43:30.279Z,20.73
2022-12-25T19:45:59.197Z,24.60
2022-12-25T19:48:25.891Z,23.52
2022-12-25T19:50:52.577Z,21.05
2022-12-25T19:53:21.415Z,20.02
2022-12-25T19:55:47.895Z,18.95
2022-12-25T19:58:14.919Z,16.92
2022-12-25T20:00:41.781Z,16.38
2022-12-25T20:03:09.178Z,15.20
2022-12-25T20:05:36.175Z,13.32
2022-12-25T20:08:02.838Z,11.95
2022-12-25T20:10:29.342Z,13.00
2022-12-25T20:12:55.809Z,13.05
2022-12-25T20:15:22.317Z,13.32
2022-12-25T20:17:48.811Z,16.10
2022-12-25T20:20:15.337Z,12.63
2022-12-25T20:22:41.794Z,13.35
2022-12-25T20:25:09.697Z,16.92
2022-12-25T20:27:36.203Z,13.80
2022-12-25T20:30:02.932Z,14.80
2022-12-25T20:32:29.678Z,13.15
2022-12-25T20:34:56.330Z,11.65
2022-12-25T20:37:22.807Z,12.45
2022-12-25T20:39:49.586Z,11.35
2022-12-25T20:42:16.128Z,11.77
2022-12-25T20:44:42.537Z,11.77
2022-12-25T20:47:09.113Z,12.20
2022-12-25T20:49:35.721Z,11.63
2022-12-25T20:52:05.512Z,12.40
2022-12-25T20:54:32.731Z,11.90
2022-12-25T20:56:59.289Z,11.70
2022-12-25T20:59:25.977Z,12.05
2022-12-25T21:01:54.229Z,13.43
2022-12-25T21:04:21.346Z,15.52
2022-12-25T21:06:47.996Z,14.73
2022-12-25T21:09:14.804Z,15.75
2022-12-25T21:11:41.290Z,15.52
2022-12-25T21:14:07.777Z,15.98
2022-12-25T21:16:35.398Z,14.88
2022-12-25T21:19:02.104Z,15.68
2022-12-25T21:21:28.609Z,15.75
2022-12-25T21:23:57.030Z,15.98
2022-12-25T21:26:26.739Z,13.50
2022-12-25T21:29:00.223Z,12.88
2022-12-25T21:31:27.923Z,11.90
2022-12-25T21:33:55.695Z,12.32
2022-12-25T21:36:24.383Z,12.85
2022-12-25T21:38:59.168Z,11.80
2022-12-25T21:41:27.470Z,12.07
2022-12-25T21:43:54.947Z,12.98
2022-12-25T21:46:22.133Z,13.15
2022-12-25T21:48:49.436Z,11.85
2022-12-25T21:51:40.508Z,11.88
2022-12-25T21:54:07.799Z,12.90
2022-12-25T21:56:42.994Z,13.63
2022-12-25T21:59:19.481Z,12.52
2022-12-25T22:01:46.334Z,12.60
2022-12-25T22:04:15.132Z,12.13
2022-12-25T22:07:00.878Z,12.25
2022-12-25T22:09:27.525Z,11.80
2022-12-25T22:12:12.509Z,12.27
2022-12-25T22:14:56.182Z,13.68
2022-12-25T22:17:48.329Z,12.73
2022-12-25T22:20:18.637Z,11.35
2022-12-25T22:22:45.401Z,10.73
2022-12-25T22:25:12.567Z,11.13
2022-12-25T22:27:41.494Z,10.38
2022-12-25T22:30:17.141Z,9.55
2022-12-25T22:32:44.084Z,9.23
2022-12-25T22:35:12.357Z,8.68
2022-12-25T22:37:40.553Z,8.80
2022-12-25T22:40:09.885Z,8.40
2022-12-25T22:42:36.790Z,9.35
2022-12-25T22:45:04.377Z,8.52
2022-12-25T22:47:30.831Z,9.27
2022-12-25T22:49:57.374Z,9.18
2022-12-25T22:52:23.942Z,8.40
2022-12-25T22:54:50.376Z,9.15
2022-12-25T22:57:16.916Z,9.40
2022-12-25T22:59:43.693Z,9.23
2022-12-25T23:02:10.234Z,9.30
2022-12-25T23:04:36.875Z,8.38
2022-12-25T23:07:03.990Z,8.75
2022-12-25T23:09:30.514Z,8.48
2022-12-25T23:11:58.648Z,8.75
2022-12-25T23:14:38.911Z,8.55
2022-12-25T23:17:30.931Z,8.52
2022-12-25T23:20:17.747Z,8.48
2022-12-25T23:23:03.509Z,8.45
2022-12-25T23:25:48.828Z,7.63
2022-12-25T23:28:35.391Z,7.97
2022-12-25T23:31:01.959Z,8.48
2022-12-25T23:33:28.597Z,8.32
2022-12-25T23:35:55.074Z,7.47
2022-12-25T23:38:21.539Z,7.85
2022-12-25T23:40:47.989Z,8.82
2022-12-25T23:43:14.741Z,7.90
2022-12-25T23:45:41.180Z,8.27
2022-12-25T23:48:08.560Z,8.00
2022-12-25T23:50:37.563Z,8.48
2022-12-25T23:53:04.128Z,9.50
2022-12-25T23:55:30.659Z,8.45
2022-12-25T23:57:57.087Z,8.95
